Time;durP1;ratioP1;P1;durP2;ratioP2;P2;SDS_P1;SDS_P2;PMS_P1;PMS_P2;Temp;Humidity;BMP_temperature;BMP_pressure;BME280_temperature;BME280_humidity;BME280_pressure;Samples;Min_cycle;Max_cycle;Signal;HPM_P1;HPM_P2
2022/04/30 00:00:38;;;;;;;10.27;5.90;;;9.20;99.90;;;;;;5015183;28;20196;-74
2022/04/30 00:03:03;;;;;;;9.70;5.27;;;9.20;99.90;;;;;;5015076;28;20207;-74
2022/04/30 00:05:31;;;;;;;8.37;5.23;;;9.20;1.00;;;;;;5015028;28;20215;-74
2022/04/30 00:07:57;;;;;;;11.97;5.00;;;9.10;99.90;;;;;;5015199;28;20184;-74
2022/04/30 00:10:23;;;;;;;8.13;5.00;;;9.10;1.00;;;;;;5033093;28;20199;-74
2022/04/30 00:12:49;;;;;;;9.10;5.30;;;9.10;1.00;;;;;;5014925;28;20193;-74
2022/04/30 00:15:14;;;;;;;7.93;5.10;;;9.10;1.00;;;;;;5033154;28;20171;-73
2022/04/30 00:17:40;;;;;;;7.97;5.00;;;9.00;95.00;;;;;;5032793;28;20646;-74
2022/04/30 00:20:06;;;;;;;7.80;5.27;;;9.00;1.00;;;;;;5033066;28;20259;-74
2022/04/30 00:22:32;;;;;;;13.30;5.67;;;9.00;1.00;;;;;;5032649;28;20279;-73
2022/04/30 00:24:57;;;;;;;8.67;5.10;;;9.00;1.00;;;;;;5032763;28;20733;-74
2022/04/30 00:27:23;;;;;;;6.77;4.63;;;9.00;99.90;;;;;;5014975;28;20225;-74
2022/04/30 00:29:48;;;;;;;7.80;5.13;;;9.00;99.90;;;;;;5032625;28;20208;-74
2022/04/30 00:32:15;;;;;;;7.80;5.20;;;8.90;1.00;;;;;;5015035;28;20176;-74
2022/04/30 00:34:41;;;;;;;8.93;4.90;;;8.90;1.00;;;;;;5032588;28;20192;-74
2022/04/30 00:37:06;;;;;;;8.60;4.77;;;8.90;1.00;;;;;;5032897;28;20184;-74
2022/04/30 00:39:33;;;;;;;6.73;4.53;;;8.80;1.00;;;;;;5033282;28;20203;-74
2022/04/30 00:41:59;;;;;;;9.10;5.30;;;8.80;99.90;;;;;;5036494;28;20548;-74
2022/04/30 00:44:25;;;;;;;6.33;4.53;;;8.70;1.00;;;;;;5036351;28;20283;-74
2022/04/30 00:46:50;;;;;;;8.17;4.50;;;8.70;1.00;;;;;;5036363;28;20179;-74
2022/04/30 00:49:16;;;;;;;7.63;4.73;;;8.70;99.90;;;;;;5036376;28;20252;-74
2022/04/30 00:51:45;;;;;;;6.20;4.33;;;8.70;99.90;;;;;;5036315;28;20168;-74
2022/04/30 00:54:13;;;;;;;8.33;4.83;;;8.60;99.90;;;;;;5036179;28;20192;-74
2022/04/30 00:56:47;;;;;;;8.20;4.40;;;8.60;99.90;;;;;;5036376;28;20176;-74
2022/04/30 00:59:17;;;;;;;9.23;4.50;;;8.60;1.00;;;;;;5018418;28;20542;-74
2022/04/30 01:01:44;;;;;;;5.77;4.90;;;8.60;99.90;;;;;;5036459;28;20593;-73
2022/04/30 01:04:10;;;;;;;8.67;4.57;;;8.60;83.10;;;;;;5035952;28;20207;-73
2022/04/30 01:06:56;;;;;;;9.13;4.10;;;8.60;20.50;;;;;;5036012;28;20165;-74
2022/04/30 01:09:24;;;;;;;6.37;4.43;;;8.60;1.00;;;;;;5036290;28;20160;-74
2022/04/30 01:12:00;;;;;;;5.57;4.37;;;8.60;99.90;;;;;;5035923;28;20204;-74
2022/04/30 01:14:29;;;;;;;9.00;3.57;;;8.60;1.00;;;;;;5035748;28;20207;-74
2022/04/30 01:16:57;;;;;;;5.17;4.20;;;8.50;99.90;;;;;;5035882;28;20650;-73
2022/04/30 01:19:24;;;;;;;6.30;3.93;;;8.50;99.90;;;;;;5035798;28;20231;-74
2022/04/30 01:21:57;;;;;;;9.73;3.53;;;8.50;99.90;;;;;;5017963;28;20180;-74
2022/04/30 01:24:25;;;;;;;11.20;4.30;;;8.50;99.90;;;;;;5035726;28;20611;-74
2022/04/30 01:26:52;;;;;;;7.07;3.80;;;8.40;1.00;;;;;;5035675;28;20180;-74
2022/04/30 01:29:19;;;;;;;6.30;3.93;;;8.50;1.00;;;;;;5017872;28;20172;-74
2022/04/30 01:37:27;;;;;;;8.67;4.27;;;8.40;99.90;;;;;;5036067;28;20173;-74
2022/04/30 01:39:59;;;;;;;7.53;4.07;;;8.30;1.00;;;;;;5035746;28;20664;-74
2022/04/30 01:42:29;;;;;;;8.53;3.60;;;8.30;1.00;;;;;;5035512;28;20176;-74
2022/04/30 01:44:57;;;;;;;7.73;3.80;;;8.30;1.00;;;;;;5018415;28;20236;-73
2022/04/30 01:47:24;;;;;;;8.17;4.07;;;8.30;1.00;;;;;;5035330;28;20541;-73
2022/04/30 01:49:50;;;;;;;8.43;3.73;;;8.30;99.90;;;;;;5035246;28;20705;-73
2022/04/30 01:52:18;;;;;;;9.50;4.23;;;8.30;1.00;;;;;;5034430;28;20195;-74
2022/04/30 01:54:44;;;;;;;6.80;4.10;;;8.30;1.00;;;;;;5035171;28;20171;-73
2022/04/30 01:57:10;;;;;;;8.57;4.53;;;8.30;1.00;;;;;;5017349;28;20272;-74
2022/04/30 01:59:36;;;;;;;5.00;3.93;;;8.30;1.00;;;;;;5035066;28;20673;-74
2022/04/30 02:02:03;;;;;;;7.93;3.80;;;8.30;1.00;;;;;;5017247;28;20180;-74
2022/04/30 02:04:30;;;;;;;7.07;4.47;;;8.30;86.70;;;;;;5016991;28;20291;-74
2022/04/30 02:06:59;;;;;;;5.70;3.83;;;8.30;99.90;;;;;;5035226;28;20707;-74
2022/04/30 02:09:28;;;;;;;8.57;4.53;;;8.30;1.00;;;;;;5017112;28;20172;-74
2022/04/30 02:11:58;;;;;;;6.30;3.90;;;8.30;99.90;;;;;;5017145;28;20164;-74
2022/04/30 02:14:29;;;;;;;6.37;4.47;;;8.10;99.90;;;;;;5034531;28;20262;-74
2022/04/30 02:16:54;;;;;;;5.93;4.10;;;8.10;89.20;;;;;;5016979;28;20179;-74
2022/04/30 02:19:22;;;;;;;7.50;4.33;;;8.20;99.90;;;;;;5034714;28;20172;-74
2022/04/30 02:21:49;;;;;;;8.93;4.30;;;8.10;99.90;;;;;;5017632;28;20176;-73
2022/04/30 02:24:15;;;;;;;5.57;4.13;;;8.10;1.00;;;;;;5034416;28;20207;-74
2022/04/30 02:26:43;;;;;;;5.33;3.93;;;8.10;1.00;;;;;;5034517;28;20168;-74
2022/04/30 02:29:10;;;;;;;8.97;3.97;;;8.10;99.90;;;;;;5034744;28;20172;-74
2022/04/30 02:31:36;;;;;;;6.00;3.90;;;8.00;1.00;;;;;;5016741;28;20184;-73
2022/04/30 02:34:01;;;;;;;7.83;3.63;;;8.00;99.90;;;;;;5016553;28;20263;-73
2022/04/30 02:36:27;;;;;;;8.70;4.30;;;8.00;99.90;;;;;;5034347;28;20180;-74
2022/04/30 02:38:57;;;;;;;9.27;4.13;;;8.00;1.00;;;;;;5016573;28;20172;-74
2022/04/30 02:41:23;;;;;;;7.33;4.20;;;7.90;1.00;;;;;;5034211;28;20195;-74
2022/04/30 02:43:50;;;;;;;6.33;3.90;;;7.80;99.90;;;;;;5034157;28;20220;-74
2022/04/30 02:46:17;;;;;;;4.57;3.70;;;7.80;1.00;;;;;;5034179;28;20172;-73
2022/04/30 02:48:43;;;;;;;5.40;4.50;;;7.80;1.00;;;;;;5016344;28;20194;-73
2022/04/30 02:51:10;;;;;;;11.97;4.90;;;7.70;1.00;;;;;;5034368;28;20169;-74
2022/04/30 02:53:36;;;;;;;7.10;4.60;;;7.70;1.00;;;;;;5016247;28;20196;-74
2022/04/30 02:56:02;;;;;;;6.70;4.43;;;7.60;99.90;;;;;;5034013;28;20642;-73
2022/04/30 03:01:11;;;;;;;6.07;4.50;;;7.50;1.00;;;;;;5033924;28;20207;-74
2022/04/30 03:03:37;;;;;;;6.90;4.43;;;7.50;99.90;;;;;;5033631;28;20574;-74
2022/04/30 03:06:03;;;;;;;9.87;4.53;;;7.40;1.00;;;;;;5033728;28;20213;-74
2022/04/30 03:08:28;;;;;;;6.50;4.27;;;7.40;1.00;;;;;;5015955;28;20279;-74
2022/04/30 03:10:56;;;;;;;5.20;4.70;;;7.30;99.90;;;;;;5015978;28;20184;-74
2022/04/30 03:13:24;;;;;;;8.30;4.63;;;7.30;1.00;;;;;;5033514;28;20632;-74
2022/04/30 03:15:51;;;;;;;7.03;4.93;;;7.30;1.00;;;;;;5015959;28;20279;-73
2022/04/30 03:23:37;;;;;;;6.97;4.87;;;7.20;99.90;;;;;;5033641;28;20200;-74
2022/04/30 03:26:09;;;;;;;8.43;4.97;;;7.20;99.90;;;;;;5033291;28;20223;-74
2022/04/30 03:28:37;;;;;;;7.93;4.93;;;7.10;99.90;;;;;;5015631;28;20168;-74
2022/04/30 03:31:03;;;;;;;9.70;4.80;;;7.10;1.00;;;;;;5033248;28;20187;-74
2022/04/30 03:33:30;;;;;;;12.13;5.43;;;7.10;99.90;;;;;;5033153;28;20612;-74
2022/04/30 03:35:55;;;;;;;8.17;5.67;;;7.00;99.90;;;;;;5033158;28;20179;-74
2022/04/30 03:38:21;;;;;;;7.50;5.47;;;7.70;99.90;;;;;;5015439;28;20267;-74
2022/04/30 03:40:46;;;;;;;8.57;5.20;;;6.90;1.00;;;;;;5015530;28;20306;-73
2022/04/30 03:43:12;;;;;;;10.70;5.23;;;6.90;1.00;;;;;;5033295;28;20204;-74
2022/04/30 03:45:38;;;;;;;10.33;5.43;;;6.90;1.00;;;;;;5033032;28;20290;-74
2022/04/30 03:48:04;;;;;;;10.60;5.40;;;6.80;1.00;;;;;;5033101;28;20176;-74
2022/04/30 03:50:30;;;;;;;14.60;5.30;;;6.80;1.00;;;;;;5033085;28;20183;-74
2022/04/30 03:52:55;;;;;;;7.33;5.23;;;6.80;99.90;;;;;;5033286;28;20196;-74
2022/04/30 03:55:21;;;;;;;7.13;5.30;;;6.70;99.90;;;;;;5032931;28;20180;-74
2022/04/30 03:57:47;;;;;;;9.50;5.73;;;6.70;99.90;;;;;;5033000;28;20188;-74
2022/04/30 04:00:13;;;;;;;7.50;5.23;;;6.70;99.90;;;;;;5032941;28;20191;-74
2022/04/30 04:02:40;;;;;;;8.67;5.27;;;6.70;99.90;;;;;;5032779;28;20196;-72
2022/04/30 04:05:12;;;;;;;12.07;5.70;;;6.70;99.90;;;;;;5015173;28;20200;-74
2022/04/30 04:07:38;;;;;;;9.70;5.47;;;6.60;99.90;;;;;;5033212;28;20168;-74
2022/04/30 04:10:04;;;;;;;8.00;5.07;;;6.60;99.90;;;;;;5032908;28;20217;-74
2022/04/30 04:12:29;;;;;;;9.93;6.27;;;6.60;99.90;;;;;;5032937;28;20256;-73
2022/04/30 04:17:39;;;;;;;9.10;5.90;;;6.60;99.90;;;;;;5037244;28;20619;-74
2022/04/30 04:20:06;;;;;;;7.63;5.97;;;6.60;99.90;;;;;;5019166;28;20276;-74
2022/04/30 04:22:32;;;;;;;10.43;6.07;;;6.50;99.90;;;;;;5036313;28;20259;-75
2022/04/30 04:27:41;;;;;;;9.43;6.50;;;6.50;99.90;;;;;;5036846;28;20550;-74
2022/04/30 04:30:07;;;;;;;6.93;5.73;;;6.50;99.90;;;;;;5036716;28;20173;-73
2022/04/30 04:32:33;;;;;;;10.40;6.17;;;6.50;99.90;;;;;;5036604;28;20650;-73
2022/04/30 04:34:58;;;;;;;9.70;5.70;;;6.50;99.90;;;;;;5018918;28;20258;-73
2022/04/30 04:37:24;;;;;;;13.60;7.23;;;6.50;99.90;;;;;;5019342;28;20187;-74
2022/04/30 04:39:49;;;;;;;12.60;6.17;;;6.50;99.90;;;;;;5019394;28;20677;-74
2022/04/30 04:42:16;;;;;;;10.47;5.90;;;6.50;99.90;;;;;;5036769;28;20242;-74
2022/04/30 04:44:41;;;;;;;8.60;6.53;;;6.40;99.90;;;;;;5036342;28;20211;-74
2022/04/30 04:47:07;;;;;;;6.90;5.60;;;6.40;99.90;;;;;;5036720;28;20173;-74
2022/04/30 04:49:33;;;;;;;9.63;6.50;;;6.40;99.90;;;;;;5036388;28;20176;-74
2022/04/30 04:52:01;;;;;;;10.73;6.23;;;6.40;99.90;;;;;;5036669;28;20587;-74
2022/04/30 04:54:27;;;;;;;6.90;5.33;;;6.40;99.90;;;;;;5019268;28;20204;-74
2022/04/30 04:56:53;;;;;;;8.80;6.23;;;6.40;99.90;;;;;;5036273;28;20234;-74
2022/04/30 04:59:19;;;;;;;8.00;5.70;;;6.40;99.90;;;;;;5036256;28;20217;-74
2022/04/30 05:01:47;;;;;;;10.60;6.33;;;6.40;99.90;;;;;;5036203;28;20657;-74
2022/04/30 05:04:12;;;;;;;8.50;5.00;;;6.40;99.90;;;;;;5035963;28;20670;-74
2022/04/30 05:06:38;;;;;;;14.60;5.97;;;6.40;99.90;;;;;;5036649;28;20195;-74
2022/04/30 05:09:03;;;;;;;9.50;6.00;;;6.40;99.90;;;;;;5036583;28;20183;-74
2022/04/30 05:11:29;;;;;;;14.00;7.20;;;6.40;99.90;;;;;;5036330;28;20164;-74
2022/04/30 05:13:54;;;;;;;8.27;5.90;;;6.40;99.90;;;;;;5066751;22;20227;-76
2022/04/30 05:16:20;;;;;;;11.87;5.97;;;6.50;99.90;;;;;;5055810;28;20179;-76
2022/04/30 05:18:45;;;;;;;10.00;5.73;;;6.40;99.90;;;;;;5055678;28;20172;-76
2022/04/30 05:21:11;;;;;;;12.73;5.80;;;6.50;99.90;;;;;;5056028;28;20530;-77
2022/04/30 05:23:37;;;;;;;7.83;6.00;;;6.50;99.90;;;;;;5055757;28;20211;-76
2022/04/30 05:26:02;;;;;;;12.73;5.50;;;6.50;99.90;;;;;;5036912;28;20203;-76
2022/04/30 05:28:28;;;;;;;11.70;5.83;;;6.50;99.90;;;;;;5037677;28;20274;-76
2022/04/30 05:30:54;;;;;;;8.83;5.53;;;6.50;99.90;;;;;;5037827;28;20207;-76
2022/04/30 05:33:19;;;;;;;12.07;6.17;;;6.50;99.90;;;;;;5055796;28;20167;-76
2022/04/30 05:35:45;;;;;;;7.73;5.87;;;6.50;99.90;;;;;;5037915;28;20661;-76
2022/04/30 05:38:10;;;;;;;13.17;6.30;;;6.50;99.90;;;;;;5037658;28;20250;-76
2022/04/30 05:40:36;;;;;;;10.47;6.07;;;6.50;99.90;;;;;;5055594;28;20186;-76
2022/04/30 05:43:04;;;;;;;8.47;5.67;;;6.60;99.90;;;;;;5037545;28;20198;-76
2022/04/30 05:45:29;;;;;;;11.23;5.93;;;6.60;99.90;;;;;;5037350;28;20203;-77
2022/04/30 05:47:55;;;;;;;12.60;6.83;;;6.60;99.90;;;;;;5037317;28;20669;-77
2022/04/30 05:50:21;;;;;;;14.47;6.90;;;6.60;99.90;;;;;;5037424;28;20175;-77
2022/04/30 05:52:46;;;;;;;14.83;6.60;;;6.70;99.90;;;;;;5037468;28;20214;-76
2022/04/30 05:55:12;;;;;;;10.77;6.40;;;6.70;99.90;;;;;;5055367;28;20620;-76
2022/04/30 05:57:37;;;;;;;13.93;6.20;;;6.70;99.90;;;;;;5037244;28;20215;-77
2022/04/30 06:00:04;;;;;;;9.83;6.40;;;6.70;99.90;;;;;;5037344;28;20653;-76
2022/04/30 06:02:29;;;;;;;13.90;6.63;;;6.80;99.90;;;;;;5037143;28;20171;-76
2022/04/30 06:04:55;;;;;;;12.30;7.07;;;6.80;99.90;;;;;;5054800;28;20200;-76
2022/04/30 06:07:20;;;;;;;10.53;7.10;;;6.90;99.90;;;;;;5054971;28;20242;-76
2022/04/30 06:09:46;;;;;;;11.97;7.30;;;6.90;99.90;;;;;;5037075;28;20638;-75
2022/04/30 06:12:11;;;;;;;9.23;7.00;;;7.00;99.90;;;;;;5054881;28;20229;-77
2022/04/30 06:14:37;;;;;;;16.30;8.17;;;7.10;99.90;;;;;;5037532;28;20219;-76
2022/04/30 06:17:03;;;;;;;11.50;6.93;;;7.10;99.90;;;;;;5037280;28;20175;-77
2022/04/30 06:19:29;;;;;;;13.73;6.63;;;7.20;99.90;;;;;;5055354;28;20198;-76
2022/04/30 06:21:54;;;;;;;11.73;7.07;;;7.30;99.90;;;;;;5037287;28;20657;-77
2022/04/30 06:24:20;;;;;;;9.73;6.43;;;7.40;99.90;;;;;;5036967;28;20289;-77
2022/04/30 06:26:45;;;;;;;11.67;7.50;;;7.40;99.90;;;;;;5054939;28;20166;-77
2022/04/30 06:29:13;;;;;;;9.80;7.30;;;7.60;99.90;;;;;;5055406;28;20174;-77
2022/04/30 06:31:39;;;;;;;10.17;7.10;;;7.70;99.90;;;;;;5036691;28;20176;-77
2022/04/30 06:34:04;;;;;;;12.73;7.43;;;7.70;99.90;;;;;;5054846;28;20194;-76
2022/04/30 06:36:30;;;;;;;8.67;6.97;;;7.80;99.90;;;;;;5054853;28;20171;-77
2022/04/30 06:38:56;;;;;;;9.93;7.23;;;7.90;99.90;;;;;;5036420;28;20217;-77
2022/04/30 06:41:21;;;;;;;11.67;6.80;;;8.00;99.90;;;;;;5056027;28;20645;-76
2022/04/30 06:43:49;;;;;;;12.20;7.27;;;8.00;99.90;;;;;;5055639;28;20245;-76
2022/04/30 06:46:15;;;;;;;10.43;7.10;;;8.10;31.00;;;;;;5036304;28;20217;-77
2022/04/30 06:48:41;;;;;;;12.70;7.07;;;8.00;1.00;;;;;;5054297;28;20644;-76
2022/04/30 06:51:06;;;;;;;9.80;7.23;;;8.00;1.00;;;;;;5036864;28;20263;-76
2022/04/30 06:59:09;;;;;;;11.87;8.00;;;8.00;21.60;;;;;;5054629;28;20539;-75
2022/04/30 07:01:52;;;;;;;14.03;7.53;;;8.10;26.50;;;;;;5036205;28;20655;-77
2022/04/30 07:04:18;;;;;;;16.23;8.20;;;8.10;17.80;;;;;;5035977;28;20199;-76
2022/04/30 07:06:46;;;;;;;12.23;6.93;;;8.20;1.00;;;;;;5053920;28;20221;-75
2022/04/30 07:09:13;;;;;;;15.00;8.20;;;8.30;1.00;;;;;;5036028;28;20263;-77
2022/04/30 07:11:39;;;;;;;11.13;7.80;;;8.40;1.00;;;;;;5053867;28;20187;-77
2022/04/30 07:14:04;;;;;;;8.37;6.57;;;8.50;1.00;;;;;;5053782;28;20716;-77
2022/04/30 07:16:30;;;;;;;12.40;7.70;;;8.60;1.00;;;;;;5054261;28;20155;-76
2022/04/30 07:18:55;;;;;;;10.43;7.63;;;8.70;1.00;;;;;;5053859;28;20187;-77
2022/04/30 07:21:21;;;;;;;12.03;7.10;;;8.70;1.00;;;;;;5054283;28;20171;-78
2022/04/30 07:23:46;;;;;;;11.23;6.90;;;8.80;99.90;;;;;;5054109;28;20198;-77
2022/04/30 07:26:12;;;;;;;9.40;6.30;;;8.90;1.00;;;;;;5036772;28;20202;-76
2022/04/30 07:28:38;;;;;;;8.97;6.27;;;9.10;1.00;;;;;;5055761;28;20698;-77
2022/04/30 07:31:04;;;;;;;11.73;6.37;;;9.20;99.90;;;;;;5053927;28;20196;-77
2022/04/30 07:33:30;;;;;;;11.80;6.40;;;9.40;1.00;;;;;;5054653;28;20172;-77
2022/04/30 07:35:56;;;;;;;10.47;5.80;;;9.50;1.00;;;;;;5036421;28;20187;-77
2022/04/30 07:38:22;;;;;;;10.70;6.43;;;9.40;1.00;;;;;;5053666;28;20528;-77
2022/04/30 07:40:48;;;;;;;11.40;6.10;;;9.50;35.80;;;;;;5035978;28;20184;-77
2022/04/30 07:43:13;;;;;;;12.30;7.13;;;9.50;99.90;;;;;;5035684;28;20175;-77
2022/04/30 07:45:39;;;;;;;8.80;6.23;;;9.50;1.00;;;;;;5053248;28;20253;-77
2022/04/30 07:48:05;;;;;;;9.13;6.43;;;9.50;99.90;;;;;;5053515;28;20247;-77
2022/04/30 07:50:35;;;;;;;9.03;6.60;;;9.40;99.90;;;;;;5035246;28;20179;-76
2022/04/30 07:53:02;;;;;;;9.43;6.60;;;9.50;1.00;;;;;;5035729;28;20537;-77
2022/04/30 07:55:28;;;;;;;9.37;6.57;;;9.50;1.00;;;;;;5053306;28;20196;-77
2022/04/30 07:57:54;;;;;;;8.33;6.07;;;9.50;99.90;;;;;;5036371;28;20176;-77
2022/04/30 08:00:19;;;;;;;8.77;6.47;;;9.50;99.90;;;;;;5053656;28;20637;-77
2022/04/30 08:02:45;;;;;;;9.20;6.40;;;9.40;1.00;;;;;;5054559;28;20208;-77
2022/04/30 08:05:10;;;;;;;10.23;5.83;;;9.30;99.90;;;;;;5053833;28;20195;-77
2022/04/30 08:07:36;;;;;;;7.77;5.83;;;9.40;99.90;;;;;;5036203;28;20185;-77
2022/04/30 08:10:01;;;;;;;11.47;6.20;;;9.30;1.00;;;;;;5053981;28;20160;-77
2022/04/30 08:12:27;;;;;;;8.23;5.37;;;9.40;99.90;;;;;;5036438;28;20187;-77
2022/04/30 08:14:52;;;;;;;10.33;5.97;;;9.30;1.00;;;;;;5056284;28;20219;-77
2022/04/30 08:17:18;;;;;;;9.30;5.97;;;9.40;1.00;;;;;;5057231;28;20179;-77
2022/04/30 08:19:44;;;;;;;6.47;5.47;;;9.30;99.90;;;;;;5055834;28;20225;-76
2022/04/30 08:22:09;;;;;;;6.90;4.63;;;9.40;1.00;;;;;;5038239;28;20179;-77
2022/04/30 08:24:35;;;;;;;8.00;4.90;;;9.40;1.00;;;;;;5053983;28;20215;-77
2022/04/30 08:27:00;;;;;;;6.83;4.37;;;9.50;99.90;;;;;;5034970;28;20725;-77
2022/04/30 08:29:28;;;;;;;8.13;4.10;;;9.50;1.00;;;;;;5053746;28;20180;-76
2022/04/30 08:31:54;;;;;;;7.03;4.03;;;9.70;99.90;;;;;;5035092;28;20179;-76
2022/04/30 08:34:19;;;;;;;6.23;4.10;;;9.90;70.50;;;;;;5036309;28;20775;-77
2022/04/30 08:36:45;;;;;;;6.47;3.93;;;10.10;99.90;;;;;;5053639;28;20208;-77
2022/04/30 08:39:11;;;;;;;6.23;3.40;;;10.30;1.00;;;;;;5035428;28;20187;-77
2022/04/30 08:41:37;;;;;;;8.87;3.63;;;10.40;1.00;;;;;;5035845;28;20249;-76
2022/04/30 08:44:03;;;;;;;5.47;3.47;;;10.50;99.90;;;;;;5053310;28;20197;-77
2022/04/30 08:46:28;;;;;;;6.53;3.90;;;10.50;99.90;;;;;;5035342;28;20298;-77
2022/04/30 08:48:54;;;;;;;7.23;3.70;;;10.60;99.90;;;;;;5035664;28;20178;-77
2022/04/30 08:51:19;;;;;;;6.93;3.60;;;10.70;1.00;;;;;;5057295;28;20207;-76
2022/04/30 08:53:45;;;;;;;10.30;3.80;;;10.80;1.00;;;;;;5057471;28;20255;-76
2022/04/30 08:56:11;;;;;;;5.27;3.33;;;10.80;99.90;;;;;;5043230;28;20210;-76
2022/04/30 08:58:37;;;;;;;4.63;3.47;;;10.90;99.90;;;;;;5059671;28;20179;-76
2022/04/30 09:01:04;;;;;;;3.37;2.47;;;11.00;99.90;;;;;;5041700;28;20184;-77
2022/04/30 09:03:34;;;;;;;3.83;2.60;;;11.00;1.00;;;;;;5060044;28;20288;-77
2022/04/30 09:06:03;;;;;;;5.77;2.20;;;11.00;1.00;;;;;;5059087;28;20525;-76
2022/04/30 09:08:29;;;;;;;3.97;2.27;;;11.00;1.00;;;;;;5038373;28;20180;-76
2022/04/30 09:11:04;;;;;;;3.57;2.23;;;11.00;99.90;;;;;;5056589;28;20182;-76
2022/04/30 09:13:32;;;;;;;5.47;2.70;;;11.00;99.90;;;;;;5038410;28;20168;-78
2022/04/30 09:15:58;;;;;;;6.13;2.70;;;11.10;1.00;;;;;;5038935;28;20643;-76
2022/04/30 09:18:23;;;;;;;5.00;2.40;;;11.20;1.00;;;;;;5055905;28;20525;-76
2022/04/30 09:20:51;;;;;;;4.07;3.07;;;11.20;1.00;;;;;;5037839;28;20229;-76
2022/04/30 09:23:32;;;;;;;5.00;2.60;;;11.30;1.00;;;;;;5055940;28;20176;-76
2022/04/30 09:26:02;;;;;;;3.60;2.93;;;11.40;1.00;;;;;;5055616;28;20191;-76
2022/04/30 09:28:30;;;;;;;4.50;3.03;;;11.50;14.00;;;;;;5055980;28;20222;-77
2022/04/30 09:31:17;;;;;;;5.43;2.60;;;11.50;1.00;;;;;;5055909;28;20532;-76
2022/04/30 09:33:55;;;;;;;3.23;2.60;;;11.60;99.90;;;;;;5037469;28;20241;-77
2022/04/30 09:39:17;;;;;;;4.17;2.60;;;11.60;99.90;;;;;;5056058;28;20210;-76
2022/04/30 09:41:43;;;;;;;6.37;2.77;;;11.70;99.90;;;;;;5055409;28;20178;-76
2022/04/30 09:44:12;;;;;;;6.20;3.10;;;11.80;1.00;;;;;;5055074;28;20192;-76
2022/04/30 09:46:39;;;;;;;4.00;2.57;;;11.90;1.00;;;;;;5055222;28;20642;-76
2022/04/30 09:54:36;;;;;;;6.20;3.03;;;12.40;99.90;;;;;;5055789;28;20257;-76
2022/04/30 09:57:04;;;;;;;4.77;2.87;;;12.40;35.80;;;;;;5037433;28;20270;-76
2022/04/30 09:59:30;;;;;;;5.53;3.60;;;12.40;99.90;;;;;;5054974;28;20186;-76
2022/04/30 10:01:57;;;;;;;4.33;2.97;;;12.50;1.00;;;;;;5036936;28;20183;-76
2022/04/30 10:04:23;;;;;;;4.67;3.23;;;12.50;1.00;;;;;;5054689;28;20284;-76
2022/04/30 10:06:53;;;;;;;5.40;2.90;;;12.30;99.90;;;;;;5037098;28;20176;-76
2022/04/30 10:09:46;;;;;;;5.87;3.80;;;12.40;1.00;;;;;;5054961;28;20250;-75
2022/04/30 10:12:35;;;;;;;3.70;2.90;;;12.30;99.90;;;;;;5053926;28;20634;-76
2022/04/30 10:15:13;;;;;;;5.77;2.93;;;12.40;99.90;;;;;;5054101;28;20219;-75
2022/04/30 10:17:42;;;;;;;4.63;2.60;;;12.60;1.00;;;;;;5054934;28;20518;-75
2022/04/30 10:20:21;;;;;;;5.97;2.87;;;12.80;99.90;;;;;;5036775;28;20219;-76
2022/04/30 10:22:51;;;;;;;6.23;3.10;;;13.00;1.00;;;;;;5036800;28;20174;-76
2022/04/30 10:25:16;;;;;;;6.13;2.70;;;12.90;57.60;;;;;;5054524;28;20199;-76
2022/04/30 10:27:46;;;;;;;4.20;3.07;;;12.80;1.00;;;;;;5054535;28;20539;-76
2022/04/30 10:30:24;;;;;;;7.27;3.30;;;12.70;41.80;;;;;;5036652;28;20665;-75
2022/04/30 10:33:01;;;;;;;4.10;2.80;;;12.80;99.90;;;;;;5054672;28;20544;-75
2022/04/30 10:35:39;;;;;;;4.60;2.70;;;12.80;1.00;;;;;;5036688;28;20210;-76
2022/04/30 10:38:15;;;;;;;4.47;2.73;;;13.00;1.00;;;;;;5054681;28;20160;-75
2022/04/30 10:40:44;;;;;;;4.17;2.73;;;13.20;1.00;;;;;;5054559;28;20242;-74
2022/04/30 10:43:31;;;;;;;7.10;3.00;;;13.30;1.00;;;;;;5054162;28;20175;-73
2022/04/30 10:45:58;;;;;;;3.83;2.53;;;13.30;1.00;;;;;;5036273;28;20195;-74
2022/04/30 10:48:24;;;;;;;6.23;2.57;;;13.20;1.00;;;;;;5054153;28;20175;-74
2022/04/30 10:51:23;;;;;;;8.70;4.00;;;13.20;1.00;;;;;;5036193;28;20241;-74
2022/04/30 10:53:48;;;;;;;4.90;2.87;;;13.20;1.00;;;;;;5040440;28;20226;-74
2022/04/30 10:56:15;;;;;;;4.30;2.33;;;13.00;99.90;;;;;;5054255;28;20175;-74
2022/04/30 10:58:44;;;;;;;3.60;2.33;;;13.10;1.00;;;;;;5036012;28;20556;-74
2022/04/30 11:01:14;;;;;;;4.33;2.47;;;13.20;99.90;;;;;;5036224;28;20526;-74
2022/04/30 11:03:45;;;;;;;4.67;2.77;;;13.40;99.90;;;;;;5035794;28;20199;-74
2022/04/30 11:06:11;;;;;;;4.53;2.70;;;13.40;99.90;;;;;;5035898;28;20628;-74
2022/04/30 11:08:37;;;;;;;4.80;2.50;;;13.40;1.00;;;;;;5053736;28;20171;-73
2022/04/30 11:11:03;;;;;;;3.00;2.77;;;13.30;1.00;;;;;;5053697;28;20199;-73
2022/04/30 11:13:29;;;;;;;5.17;3.10;;;13.20;1.00;;;;;;5053641;28;20260;-73
2022/04/30 11:15:59;;;;;;;3.17;2.60;;;13.20;99.90;;;;;;5055336;28;20175;-74
2022/04/30 11:18:24;;;;;;;5.60;2.40;;;13.20;1.00;;;;;;5053542;28;20186;-74
2022/04/30 11:20:58;;;;;;;3.70;2.90;;;13.30;1.00;;;;;;5053096;28;20176;-75
2022/04/30 11:23:24;;;;;;;5.00;2.87;;;13.30;1.00;;;;;;5053445;28;20529;-74
2022/04/30 11:25:50;;;;;;;5.30;2.57;;;13.30;1.00;;;;;;5036271;28;20199;-74
2022/04/30 11:28:15;;;;;;;4.87;2.93;;;13.40;99.90;;;;;;5053562;28;20176;-74
2022/04/30 11:30:43;;;;;;;4.80;2.53;;;13.30;99.90;;;;;;5053330;28;20176;-77
2022/04/30 11:33:09;;;;;;;4.17;2.17;;;13.20;1.00;;;;;;5053606;28;20218;-73
2022/04/30 11:35:35;;;;;;;6.30;2.67;;;13.20;1.00;;;;;;5053256;28;20257;-73
2022/04/30 11:38:02;;;;;;;4.33;2.60;;;13.30;1.00;;;;;;5053323;28;20233;-74
2022/04/30 11:40:27;;;;;;;5.20;2.60;;;13.40;1.00;;;;;;5035364;28;20213;-74
2022/04/30 11:43:02;;;;;;;4.43;2.57;;;13.70;1.00;;;;;;5053140;28;20572;-73
2022/04/30 11:45:30;;;;;;;4.97;3.13;;;13.80;1.00;;;;;;5035146;28;20210;-73
2022/04/30 11:47:56;;;;;;;3.07;2.53;;;13.70;99.90;;;;;;5053308;28;20209;-74
2022/04/30 11:50:22;;;;;;;3.73;2.30;;;13.50;99.90;;;;;;5053121;28;20221;-73
2022/04/30 11:52:49;;;;;;;5.73;2.43;;;13.60;99.90;;;;;;5053060;28;20168;-74
2022/04/30 11:55:15;;;;;;;4.03;2.33;;;13.50;99.90;;;;;;5052984;28;20237;-74
2022/04/30 11:57:42;;;;;;;4.67;2.80;;;13.50;1.00;;;;;;5053009;28;20552;-73
2022/04/30 12:00:12;;;;;;;6.30;2.57;;;13.40;99.90;;;;;;5053212;28;20214;-73
2022/04/30 12:02:41;;;;;;;3.53;2.30;;;13.50;99.90;;;;;;5052878;28;20176;-74
2022/04/30 12:05:08;;;;;;;2.83;2.37;;;13.70;1.00;;;;;;5052933;28;20206;-73
2022/04/30 12:07:39;;;;;;;4.10;2.50;;;13.80;99.90;;;;;;5053210;28;20159;-73
2022/04/30 12:10:26;;;;;;;3.47;2.23;;;13.90;99.90;;;;;;5035304;28;20171;-74
2022/04/30 12:12:52;;;;;;;4.03;2.60;;;14.10;99.90;;;;;;5035303;28;20309;-74
2022/04/30 12:15:27;;;;;;;2.20;1.93;;;13.90;99.90;;;;;;5052891;28;20199;-73
2022/04/30 12:27:01;;;;;;;3.77;1.90;;;14.40;58.00;;;;;;5053288;28;20243;-73
2022/04/30 12:29:27;;;;;;;4.63;1.80;;;14.40;99.90;;;;;;5035037;28;20715;-74
2022/04/30 12:31:53;;;;;;;3.50;1.80;;;14.60;99.90;;;;;;5052920;28;20183;-73
2022/04/30 12:34:25;;;;;;;3.83;1.90;;;14.70;32.20;;;;;;5052800;28;20283;-73
2022/04/30 12:36:58;;;;;;;2.43;1.83;;;14.70;26.20;;;;;;5055475;28;20561;-74
2022/04/30 12:39:25;;;;;;;3.87;1.67;;;14.60;1.00;;;;;;5039103;28;20168;-74
2022/04/30 12:41:53;;;;;;;5.33;2.50;;;14.60;99.90;;;;;;5056826;28;20176;-74
2022/04/30 12:44:20;;;;;;;3.53;2.40;;;14.50;57.00;;;;;;5056426;28;20187;-74
2022/04/30 12:46:47;;;;;;;3.17;2.47;;;14.40;1.00;;;;;;5056610;28;20535;-74
2022/04/30 12:49:14;;;;;;;3.63;1.90;;;14.40;1.00;;;;;;5056644;28;20176;-74
2022/04/30 12:51:43;;;;;;;3.27;1.87;;;14.50;77.40;;;;;;5056943;28;20660;-74
2022/04/30 12:54:12;;;;;;;3.20;1.47;;;14.60;1.00;;;;;;5056902;28;20559;-75
2022/04/30 12:56:39;;;;;;;3.57;2.10;;;14.60;1.00;;;;;;5057410;28;20171;-73
2022/04/30 12:59:05;;;;;;;6.30;2.20;;;14.60;1.00;;;;;;5056304;28;20176;-73
2022/04/30 13:01:31;;;;;;;4.60;1.70;;;14.50;1.00;;;;;;5038253;28;20266;-73
2022/04/30 13:03:56;;;;;;;1.50;1.30;;;14.50;12.60;;;;;;5056084;28;20234;-72
2022/04/30 13:06:22;;;;;;;1.67;1.20;;;14.30;1.00;;;;;;5056021;28;20287;-74
2022/04/30 13:14:16;;;;;;;2.83;1.20;;;14.70;1.00;;;;;;5056099;28;20265;-75
2022/04/30 13:16:41;;;;;;;2.13;1.57;;;14.80;1.00;;;;;;5056429;28;20168;-74
2022/04/30 13:19:07;;;;;;;3.30;1.90;;;14.90;1.00;;;;;;5055924;28;20168;-74
2022/04/30 13:21:33;;;;;;;2.27;1.60;;;15.00;1.00;;;;;;5056085;28;20634;-74
2022/04/30 13:23:59;;;;;;;2.70;1.70;;;14.90;1.00;;;;;;5037785;28;20195;-74
2022/04/30 13:26:26;;;;;;;2.33;1.70;;;14.80;1.00;;;;;;5055681;28;20673;-74
2022/04/30 13:28:52;;;;;;;2.67;1.60;;;14.70;1.00;;;;;;5055710;28;20225;-74
2022/04/30 13:31:17;;;;;;;3.03;1.80;;;14.70;1.00;;;;;;5055685;28;20574;-74
2022/04/30 13:33:43;;;;;;;2.50;1.80;;;14.70;1.00;;;;;;5037663;28;20199;-74
2022/04/30 13:36:09;;;;;;;3.67;1.87;;;14.80;1.00;;;;;;5055876;28;20179;-74
2022/04/30 13:38:37;;;;;;;2.50;1.70;;;14.90;1.00;;;;;;5055505;28;20168;-74
2022/04/30 13:41:03;;;;;;;1.60;1.40;;;15.00;1.00;;;;;;5055468;28;20172;-74
2022/04/30 13:43:29;;;;;;;3.20;2.17;;;15.00;1.00;;;;;;5055408;28;20183;-74